04:14
Airports
Links
Donate
Help keep this website running!
PayPal
Bitcoin
METAR
KNIP 210353Z 11003KT 10SM BKN050 BKN250 19/14 A3014 RMK AO2 SLP201 T01940139 $
Current Weather Conditions at KNIP
VFR 03:53:00 21-11-17
Automated station
Altimeter:30.14 hg
Temp:19.4°c 66°f
Dew point:13.9°c 55°f
Wind:3 knots, 3.5 mph, 2 m/s, from 110°
Visibility:10.0 statute miles
25000(BKN) Broken
5000(BKN) Broken
Past METAR reports
VFR 02:53:00 21-11-17
Automated station
Altimeter:30.15 hg
Temp:19.4°c 66°f
Dew point:13.3°c 55°f
Wind:4 knots, 4.6 mph, 2 m/s, from 90°
Visibility:10.0 statute miles
25000(BKN) Broken
5000(BKN) Broken
KNIP 210253Z 09004KT 10SM BKN050 BKN250 19/13 A3015 RMK AO2 SLP203 T01940133 58003 $
VFR 01:53:00 21-11-17
Automated station
Altimeter:30.15 hg
Temp:20.6°c 68°f
Dew point:13.3°c 55°f
Wind:6 knots, 6.9 mph, 3 m/s, from 80°
Visibility:10.0 statute miles
25000(BKN) Broken
5500(BKN) Broken
KNIP 210153Z 08006KT 10SM BKN055 BKN250 21/13 A3015 RMK AO2 SLP206 T02060133 $
VFR 00:53:00 21-11-17
Automated station
Altimeter:30.15 hg
Temp:20.6°c 68°f
Dew point:12.2°c 54°f
Wind:7 knots, 8.1 mph, 4 m/s, from 70°
Visibility:10.0 statute miles
25000(BKN) Broken
5500(BKN) Broken
KNIP 210053Z 07007KT 10SM BKN055 BKN250 21/12 A3015 RMK AO2 SLP206 T02060122 $
VFR 23:53:00 20-11-17
Automated station
Altimeter:30.15 hg
Temp:21.1°c 70°f
Dew point:12.8°c 54°f
Wind:7 knots, 8.1 mph, 4 m/s, from 70°
Visibility:10.0 statute miles
25000(BKN) Broken
5000(BKN) Broken
3600(FEW) A few
KNIP 202353Z 07007KT 10SM FEW036 BKN050 BKN250 21/13 A3015 RMK AO2 SLP206 T02110128 10222 20200 51006 $
VFR 22:53:00 20-11-17
Automated station
Altimeter:30.15 hg
Temp:20.0°c 68°f
Dew point:15.0°c 59°f
Wind:5 knots, 5.8 mph, 3 m/s, from 30°
Visibility:10.0 statute miles
25000(BKN) Broken
5000(BKN) Broken
3600(FEW) A few
KNIP 202253Z 03005KT 10SM FEW036 BKN050 BKN250 20/15 A3015 RMK AO2 SLP204 T02000150 $
TAF
TAF KNIP 2023/2123 04008KT 9999 BKN050 BKN250 QNH3011INS FM210200 03006KT 9999 SCT045 BKN250 QNH3005INS FM210900 04005KT 9999 VCSH SCT030 BKN080 BKN250 QNH3004INS FM211500 09008KT 9999 VCSH BKN035 BKN080 BKN250 QNH2994INS TEMPO 2118/2123 6000 -SHRA FEW010 BKN025 OVC050 T15/2112Z T24/2120Z FN20016
Forecast at KNIP
23:00 20-11-17 to 02:00 21-11-17
Wind:8 Knots from 40°
Visibility:6.21 statute miles
5000BKN Broken
25000BKN Broken
FM 02:00 21-11-17 to 09:00 21-11-17
Wind:6 Knots from 30°
Visibility:6.21 statute miles
4500SCT Scattered
25000BKN Broken
FM 09:00 21-11-17 to 15:00 21-11-17
VCSH
Wind:5 Knots from 40°
Visibility:6.21 statute miles
3000SCT Scattered
8000BKN Broken
25000BKN Broken
FM 15:00 21-11-17 to 23:00 21-11-17
VCSH
Wind:8 Knots from 90°
Visibility:6.21 statute miles
3500BKN Broken
8000BKN Broken
25000BKN Broken
TEMPO 18:00 21-11-17 to 23:00 21-11-17
-SHRA
Wind:16 Knots from 200°
Visibility:3.73 statute miles
1000FEW A few
2500BKN Broken
5000OVC Overcast